Time;durP1;ratioP1;P1;durP2;ratioP2;P2;SDS_P1;SDS_P2;PMS_P1;PMS_P2;Temp;Humidity;BMP_temperature;BMP_pressure;BME280_temperature;BME280_humidity;BME280_pressure;Samples;Min_cycle;Max_cycle;Signal;HPM_P1;HPM_P2
2021/09/14 00:02:16;;;;;;;4.70;3.52;;;15.90;99.90;;;;;;1948457;73;21519;-75
2021/09/14 00:04:42;;;;;;;5.03;4.25;;;15.90;99.90;;;;;;1974514;73;21486;-75
2021/09/14 00:07:08;;;;;;;3.80;3.50;;;15.90;99.90;;;;;;1970587;72;21036;-75
2021/09/14 00:09:34;;;;;;;5.45;3.65;;;15.90;99.90;;;;;;1979050;72;21124;-74
2021/09/14 00:12:00;;;;;;;4.20;3.67;;;15.80;99.90;;;;;;1978562;72;21063;-74
2021/09/14 00:14:29;;;;;;;3.62;3.33;;;15.80;99.90;;;;;;1971756;72;21055;-74
2021/09/14 00:16:56;;;;;;;6.90;3.60;;;15.80;99.90;;;;;;1965831;72;21063;-74
2021/09/14 00:19:22;;;;;;;9.60;4.12;;;15.80;99.90;;;;;;1970944;72;21054;-74
2021/09/14 00:21:48;;;;;;;7.70;3.52;;;15.80;99.90;;;;;;1977172;72;21067;-74
2021/09/14 00:24:14;;;;;;;9.63;3.80;;;15.80;99.90;;;;;;1980359;72;21071;-74
2021/09/14 00:26:40;;;;;;;4.85;3.65;;;15.70;99.90;;;;;;1974626;73;21079;-74
2021/09/14 00:29:06;;;;;;;4.17;3.72;;;15.70;99.90;;;;;;1974493;73;21515;-74
2021/09/14 00:31:33;;;;;;;5.83;3.95;;;15.70;99.90;;;;;;1974379;72;21495;-74
2021/09/14 00:33:59;;;;;;;4.12;3.72;;;15.80;99.90;;;;;;1977021;72;21073;-74
2021/09/14 00:36:25;;;;;;;6.62;3.70;;;15.80;99.90;;;;;;1974515;73;21121;-74
2021/09/14 00:38:52;;;;;;;4.00;3.60;;;15.80;99.90;;;;;;1970119;72;21027;-74
2021/09/14 00:41:18;;;;;;;4.53;3.92;;;15.90;99.90;;;;;;1978035;72;21066;-75
2021/09/14 00:43:44;;;;;;;5.20;3.60;;;15.90;99.90;;;;;;1972341;72;21058;-74
2021/09/14 00:46:10;;;;;;;9.75;3.83;;;15.90;99.90;;;;;;1972671;72;21058;-74
2021/09/14 00:48:36;;;;;;;6.05;3.92;;;15.90;99.90;;;;;;1974525;73;21024;-74
2021/09/14 00:51:02;;;;;;;5.60;3.72;;;15.90;99.90;;;;;;1974462;72;21063;-75
2021/09/14 00:53:28;;;;;;;3.98;3.58;;;15.90;99.90;;;;;;1967065;72;21176;-74
2021/09/14 00:55:54;;;;;;;5.37;3.92;;;15.90;99.90;;;;;;1970868;72;21136;-74
2021/09/14 00:58:21;;;;;;;8.50;4.15;;;15.90;99.90;;;;;;1976293;72;21079;-74
2021/09/14 01:00:47;;;;;;;4.62;3.80;;;15.90;99.90;;;;;;1976632;72;21075;-74
2021/09/14 01:03:13;;;;;;;5.40;3.87;;;15.90;99.90;;;;;;1984711;72;21140;-75
2021/09/14 01:05:39;;;;;;;5.42;4.08;;;15.90;99.90;;;;;;1969244;72;21223;-75
2021/09/14 01:08:05;;;;;;;5.22;3.95;;;15.90;99.90;;;;;;1970030;72;21453;-74
2021/09/14 01:10:31;;;;;;;7.22;3.90;;;15.80;99.90;;;;;;1968062;72;21487;-74
2021/09/14 01:12:57;;;;;;;5.12;3.65;;;15.80;99.90;;;;;;1962419;72;21588;-74
2021/09/14 01:15:25;;;;;;;8.03;4.30;;;15.80;99.90;;;;;;1977961;72;21510;-75
2021/09/14 01:17:51;;;;;;;6.92;4.08;;;15.80;99.90;;;;;;1980579;72;21039;-75
2021/09/14 01:20:17;;;;;;;5.47;4.05;;;15.70;99.90;;;;;;1974683;73;21084;-75
2021/09/14 01:22:43;;;;;;;4.67;4.00;;;15.70;99.90;;;;;;1974343;72;21218;-75
2021/09/14 01:25:09;;;;;;;4.28;3.87;;;15.70;99.90;;;;;;1976760;72;21194;-75
2021/09/14 01:27:35;;;;;;;7.10;4.00;;;15.70;99.90;;;;;;1984709;72;21075;-75
2021/09/14 01:30:20;;;;;;;4.80;4.40;;;15.70;99.90;;;;;;1971640;72;21084;-75
2021/09/14 01:32:46;;;;;;;6.15;4.65;;;15.60;99.90;;;;;;1968774;72;21135;-75
2021/09/14 01:35:13;;;;;;;5.20;4.70;;;15.60;99.90;;;;;;1980636;72;21032;-75
2021/09/14 01:37:39;;;;;;;4.42;4.03;;;15.60;99.90;;;;;;1963512;72;21053;-75
2021/09/14 01:40:05;;;;;;;5.22;4.58;;;15.60;99.90;;;;;;1974672;73;21084;-75
2021/09/14 01:42:31;;;;;;;5.62;4.40;;;15.60;99.90;;;;;;1971307;72;21103;-75
2021/09/14 01:44:57;;;;;;;5.03;3.90;;;15.60;99.90;;;;;;1974586;72;21204;-75
2021/09/14 01:47:23;;;;;;;5.78;4.58;;;15.50;99.90;;;;;;1974545;72;21063;-75
2021/09/14 01:49:49;;;;;;;11.25;5.00;;;15.50;99.90;;;;;;1974570;72;21165;-75
2021/09/14 01:52:15;;;;;;;4.70;4.30;;;15.40;99.90;;;;;;1968302;72;21057;-75
2021/09/14 01:54:42;;;;;;;7.53;4.53;;;15.40;99.90;;;;;;1976255;72;21129;-75
2021/09/14 01:57:09;;;;;;;5.03;4.30;;;15.40;99.90;;;;;;1974477;73;21508;-75
2021/09/14 01:59:36;;;;;;;8.50;4.35;;;15.40;99.90;;;;;;1974491;72;21108;-75
2021/09/14 02:02:22;;;;;;;5.10;4.65;;;15.40;99.90;;;;;;1980670;72;21125;-75
2021/09/14 02:23:57;;;;;;;8.00;5.05;;;15.00;99.90;;;;;;1970622;72;21088;-74
2021/09/14 03:01:06;;;;;;;4.97;4.47;;;14.70;99.90;;;;;;1969292;72;21132;-73
2021/09/14 03:03:32;;;;;;;9.13;5.47;;;14.70;99.90;;;;;;1975576;72;21486;-73
2021/09/14 03:05:58;;;;;;;5.42;4.75;;;14.80;99.90;;;;;;1970823;72;21607;-74
2021/09/14 03:08:24;;;;;;;5.12;4.62;;;14.70;99.90;;;;;;1974399;73;21458;-73
2021/09/14 03:10:51;;;;;;;9.33;5.42;;;14.70;99.90;;;;;;1974379;72;21475;-73
2021/09/14 03:13:17;;;;;;;7.10;5.08;;;14.60;99.90;;;;;;1966559;72;21479;-74
2021/09/14 03:15:43;;;;;;;6.30;4.97;;;14.60;99.90;;;;;;1977065;72;21044;-73
2021/09/14 03:18:09;;;;;;;12.75;4.60;;;14.60;99.90;;;;;;1970178;72;21214;-74
2021/09/14 03:20:35;;;;;;;5.72;4.65;;;14.60;99.90;;;;;;1970684;72;21063;-74
2021/09/14 03:23:01;;;;;;;5.53;4.85;;;14.70;99.90;;;;;;1975232;72;21063;-74
2021/09/14 03:25:27;;;;;;;4.85;4.35;;;14.70;99.90;;;;;;1984943;72;21117;-74
2021/09/14 03:27:53;;;;;;;5.42;4.90;;;14.70;99.90;;;;;;1977477;72;21132;-74
2021/09/14 03:30:20;;;;;;;7.78;5.37;;;14.60;99.90;;;;;;1974375;73;21055;-74
2021/09/14 03:32:46;;;;;;;6.70;5.20;;;14.60;99.90;;;;;;1974331;73;20989;-74
2021/09/14 03:35:12;;;;;;;6.33;5.72;;;14.60;99.90;;;;;;1974476;73;21145;-74
2021/09/14 03:37:38;;;;;;;5.60;5.10;;;14.60;99.90;;;;;;1974209;72;21052;-74
2021/09/14 03:40:04;;;;;;;6.05;4.70;;;14.70;99.90;;;;;;1974630;73;21165;-75
2021/09/14 03:42:30;;;;;;;5.62;4.95;;;14.80;99.90;;;;;;1971033;72;21187;-73
2021/09/14 03:44:56;;;;;;;13.93;5.33;;;14.80;99.90;;;;;;1979229;72;21128;-74
2021/09/14 03:47:22;;;;;;;7.30;5.15;;;14.80;99.90;;;;;;1972444;72;21045;-73
2021/09/14 03:49:49;;;;;;;7.50;4.28;;;14.80;99.90;;;;;;1974488;72;21028;-73
2021/09/14 03:52:15;;;;;;;5.50;4.03;;;14.90;99.90;;;;;;1974419;72;21137;-74
2021/09/14 03:54:41;;;;;;;6.30;4.47;;;14.90;99.90;;;;;;1982923;72;21124;-74
2021/09/14 03:57:07;;;;;;;6.40;5.00;;;14.90;99.90;;;;;;1971949;72;21055;-73
2021/09/14 03:59:38;;;;;;;4.55;4.15;;;14.80;99.90;;;;;;1973422;72;21037;-73
2021/09/14 04:02:01;;;;;;;4.55;4.17;;;14.80;99.90;;;;;;1979346;72;21083;-74
2021/09/14 04:07:11;;;;;;;11.53;4.80;;;14.80;99.90;;;;;;1971057;72;21106;-75
2021/09/14 04:09:26;;;;;;;7.08;5.05;;;14.80;99.90;;;;;;1968193;72;21088;-74
2021/09/14 04:11:52;;;;;;;6.75;5.05;;;14.80;99.90;;;;;;1967464;72;21056;-75
2021/09/14 04:14:18;;;;;;;8.18;5.12;;;14.70;99.90;;;;;;1974358;72;21133;-75
2021/09/14 04:16:44;;;;;;;6.45;4.53;;;14.70;99.90;;;;;;1971147;72;21059;-74
2021/09/14 04:19:11;;;;;;;4.95;4.53;;;14.70;99.90;;;;;;1974296;72;21099;-74
2021/09/14 04:21:37;;;;;;;6.87;4.50;;;14.60;99.90;;;;;;1974346;73;21132;-73
2021/09/14 04:24:03;;;;;;;6.55;4.70;;;14.60;99.90;;;;;;1968726;72;21058;-74
2021/09/14 04:26:29;;;;;;;15.13;4.60;;;14.60;99.90;;;;;;1971414;72;21214;-74
2021/09/14 04:28:55;;;;;;;7.58;5.05;;;14.50;99.90;;;;;;1984728;72;21051;-73
2021/09/14 04:31:21;;;;;;;7.60;4.78;;;14.50;99.90;;;;;;1974323;72;21125;-73
2021/09/14 04:33:47;;;;;;;9.30;6.55;;;14.40;99.90;;;;;;1967403;72;21140;-73
2021/09/14 04:36:13;;;;;;;9.95;5.80;;;14.40;99.90;;;;;;1977338;72;21036;-74
2021/09/14 04:38:42;;;;;;;11.15;6.58;;;14.40;99.90;;;;;;1971139;72;21055;-73
2021/09/14 04:41:07;;;;;;;11.75;6.00;;;14.30;99.90;;;;;;1967138;72;21136;-73
2021/09/14 04:43:33;;;;;;;7.08;5.22;;;14.30;99.90;;;;;;1974335;72;21055;-74
2021/09/14 04:46:00;;;;;;;5.33;4.83;;;14.40;99.90;;;;;;1983680;72;21024;-74
2021/09/14 04:48:26;;;;;;;8.03;4.90;;;14.40;99.90;;;;;;1967377;72;21051;-73
2021/09/14 04:50:52;;;;;;;6.15;4.70;;;14.40;99.90;;;;;;1973766;72;21132;-74
2021/09/14 04:53:19;;;;;;;6.97;5.10;;;14.30;99.90;;;;;;1974280;73;21492;-74
2021/09/14 04:55:45;;;;;;;9.83;5.37;;;14.30;99.90;;;;;;1972310;72;21380;-73
2021/09/14 04:58:11;;;;;;;8.23;4.85;;;14.30;99.90;;;;;;1968945;72;21074;-73
2021/09/14 05:00:37;;;;;;;5.80;5.08;;;14.30;99.90;;;;;;1979940;72;21064;-73
2021/09/14 05:03:03;;;;;;;5.78;4.72;;;14.20;99.90;;;;;;1970871;72;21059;-73
2021/09/14 05:05:29;;;;;;;6.47;5.35;;;14.20;99.90;;;;;;1974223;72;21052;-73
2021/09/14 05:07:55;;;;;;;11.73;6.00;;;14.20;99.90;;;;;;1974361;72;21084;-74
2021/09/14 05:10:22;;;;;;;6.08;5.15;;;14.30;99.90;;;;;;1976153;72;21067;-73
2021/09/14 05:12:48;;;;;;;6.40;5.50;;;14.30;99.90;;;;;;1975418;72;21125;-73
2021/09/14 05:15:14;;;;;;;7.65;5.65;;;14.20;99.90;;;;;;1975676;72;21028;-74
2021/09/14 05:17:40;;;;;;;6.00;5.25;;;14.20;99.90;;;;;;1965669;72;21131;-73
2021/09/14 05:20:06;;;;;;;5.78;4.80;;;14.20;99.90;;;;;;1976117;72;21150;-73
2021/09/14 05:22:35;;;;;;;7.83;5.53;;;14.20;99.90;;;;;;1971790;72;21129;-73
2021/09/14 05:25:01;;;;;;;7.47;5.92;;;14.30;99.90;;;;;;1977546;72;21440;-74
2021/09/14 05:27:28;;;;;;;10.40;5.90;;;14.30;99.90;;;;;;1968919;72;21661;-77
2021/09/14 05:29:54;;;;;;;6.62;5.65;;;14.40;99.90;;;;;;1970771;72;21553;-76
2021/09/14 05:32:20;;;;;;;6.28;5.67;;;14.40;99.90;;;;;;1972773;72;21544;-77
2021/09/14 05:34:46;;;;;;;9.13;6.65;;;14.30;99.90;;;;;;1964726;72;21491;-77
2021/09/14 05:37:12;;;;;;;7.40;6.08;;;14.40;99.90;;;;;;1968903;72;21487;-78
2021/09/14 05:39:38;;;;;;;8.08;5.92;;;14.40;99.90;;;;;;1967047;72;21066;-78
2021/09/14 05:42:04;;;;;;;6.90;5.58;;;14.50;99.90;;;;;;1971496;72;21174;-78
2021/09/14 05:44:34;;;;;;;6.47;5.47;;;14.50;99.90;;;;;;1972190;72;21085;-77
2021/09/14 05:46:58;;;;;;;9.45;5.95;;;14.60;99.90;;;;;;1985020;72;21055;-76
2021/09/14 05:49:24;;;;;;;10.10;5.72;;;14.60;99.90;;;;;;1971370;72;21067;-76
2021/09/14 05:51:50;;;;;;;7.97;6.33;;;14.70;99.90;;;;;;1971265;72;21054;-76
2021/09/14 05:54:17;;;;;;;10.82;7.17;;;14.70;99.90;;;;;;1977339;72;21129;-76
2021/09/14 05:56:43;;;;;;;12.13;7.00;;;14.80;99.90;;;;;;1980422;72;21062;-76
2021/09/14 05:59:09;;;;;;;7.87;6.47;;;14.80;99.90;;;;;;1978387;72;21056;-75
2021/09/14 06:01:35;;;;;;;8.73;6.80;;;14.80;99.90;;;;;;1976500;72;21039;-77
2021/09/14 06:04:01;;;;;;;11.85;6.53;;;14.90;99.90;;;;;;1971219;72;21114;-76
2021/09/14 06:06:27;;;;;;;9.93;6.72;;;14.90;99.90;;;;;;1974460;73;21116;-78
2021/09/14 06:08:53;;;;;;;7.67;6.08;;;15.00;99.90;;;;;;1974627;72;21125;-79
2021/09/14 06:11:19;;;;;;;9.65;6.40;;;15.10;99.90;;;;;;1974844;73;21032;-78
2021/09/14 06:13:46;;;;;;;8.55;5.70;;;15.20;99.90;;;;;;1973205;72;21023;-85
2021/09/14 06:16:12;;;;;;;9.13;6.25;;;15.30;99.90;;;;;;1991602;72;21034;-75
2021/09/14 06:18:38;;;;;;;10.90;6.90;;;15.30;99.90;;;;;;1982521;72;21067;-75
2021/09/14 06:21:06;;;;;;;8.20;5.67;;;15.40;99.90;;;;;;1972788;72;21023;-76
2021/09/14 06:23:32;;;;;;;8.30;6.08;;;15.50;99.90;;;;;;1977248;72;21420;-74
2021/09/14 06:25:58;;;;;;;9.10;6.78;;;15.50;99.90;;;;;;1973930;72;21483;-74
2021/09/14 06:28:24;;;;;;;10.05;5.80;;;15.60;99.90;;;;;;1974326;72;21128;-73
2021/09/14 06:30:50;;;;;;;7.80;5.95;;;15.70;99.90;;;;;;1974407;73;21099;-74
2021/09/14 06:33:16;;;;;;;7.75;5.78;;;15.80;99.90;;;;;;1974386;72;21051;-74
2021/09/14 06:35:43;;;;;;;6.65;5.92;;;15.90;99.90;;;;;;1970885;72;21061;-76
2021/09/14 06:38:09;;;;;;;7.42;5.80;;;16.00;99.90;;;;;;1971098;72;21119;-73
2021/09/14 06:40:35;;;;;;;11.33;5.15;;;16.10;99.90;;;;;;1957762;72;21136;-79
2021/09/14 06:43:01;;;;;;;7.53;6.12;;;16.20;99.90;;;;;;1965952;72;21102;-74
2021/09/14 06:45:27;;;;;;;6.67;5.75;;;16.30;99.90;;;;;;1974592;73;21060;-73
2021/09/14 06:47:53;;;;;;;12.13;6.20;;;16.30;99.90;;;;;;1971460;72;21136;-75
2021/09/14 06:50:22;;;;;;;8.48;5.67;;;16.50;99.90;;;;;;1980396;72;21534;-75
2021/09/14 06:52:48;;;;;;;9.15;6.05;;;16.50;99.90;;;;;;1969413;72;21084;-75
2021/09/14 06:55:15;;;;;;;6.47;5.55;;;16.60;99.90;;;;;;1968966;72;21075;-75
2021/09/14 06:57:41;;;;;;;9.15;5.30;;;16.70;99.90;;;;;;1974398;73;21184;-76
2021/09/14 07:00:07;;;;;;;7.35;5.78;;;16.80;99.90;;;;;;1966989;72;21109;-76
2021/09/14 07:02:33;;;;;;;6.67;5.62;;;17.10;99.90;;;;;;1971518;72;21016;-76
2021/09/14 07:04:59;;;;;;;7.92;5.75;;;17.10;99.90;;;;;;1973711;72;21125;-75
2021/09/14 07:07:25;;;;;;;9.45;6.47;;;17.20;99.90;;;;;;1974353;72;21203;-75
2021/09/14 07:09:51;;;;;;;7.22;5.65;;;17.20;99.90;;;;;;1969562;72;21076;-73
2021/09/14 07:12:21;;;;;;;6.97;6.22;;;17.30;99.90;;;;;;1979141;72;21058;-76
2021/09/14 07:14:47;;;;;;;7.53;5.45;;;17.50;99.90;;;;;;1977937;72;21117;-78
2021/09/14 07:17:13;;;;;;;7.17;6.00;;;17.70;99.90;;;;;;1971247;72;21132;-78
2021/09/14 07:19:39;;;;;;;7.70;5.53;;;17.80;99.90;;;;;;1973087;72;21248;-76
2021/09/14 07:22:05;;;;;;;6.78;5.67;;;18.00;99.90;;;;;;1977589;72;21070;-78
2021/09/14 07:24:31;;;;;;;6.80;5.20;;;18.10;99.90;;;;;;1966806;72;21102;-80
2021/09/14 07:26:57;;;;;;;8.55;6.08;;;18.30;99.90;;;;;;1971382;72;21121;-78
2021/09/14 07:29:24;;;;;;;5.80;5.22;;;18.40;99.90;;;;;;1971157;72;21056;-75
2021/09/14 07:31:50;;;;;;;7.50;5.15;;;18.50;99.90;;;;;;1972994;72;21066;-76
2021/09/14 07:34:17;;;;;;;11.65;5.72;;;18.70;99.90;;;;;;1978541;72;21125;-77
2021/09/14 07:36:43;;;;;;;5.17;4.67;;;18.70;99.90;;;;;;1971317;72;21071;-76
2021/09/14 07:39:09;;;;;;;7.17;5.17;;;18.80;99.90;;;;;;1971293;72;21043;-75
2021/09/14 07:41:35;;;;;;;7.67;4.90;;;18.90;99.90;;;;;;1980536;72;21043;-74
2021/09/14 07:44:01;;;;;;;5.80;4.60;;;18.90;99.90;;;;;;1979547;72;21184;-75
2021/09/14 07:46:27;;;;;;;7.78;5.08;;;18.90;99.90;;;;;;1976141;72;21016;-74
2021/09/14 07:48:55;;;;;;;5.33;4.05;;;19.00;99.90;;;;;;1976410;72;21064;-74
2021/09/14 07:51:22;;;;;;;8.73;4.87;;;19.20;99.90;;;;;;1979295;72;21098;-76
2021/09/14 07:53:48;;;;;;;4.20;3.80;;;19.30;99.90;;;;;;1979462;72;21062;-73
2021/09/14 07:56:14;;;;;;;6.85;4.65;;;19.30;99.90;;;;;;1982539;72;21152;-75
2021/09/14 07:58:40;;;;;;;10.85;4.58;;;19.40;99.90;;;;;;1972632;72;21032;-73
2021/09/14 08:01:06;;;;;;;5.08;4.22;;;19.50;99.90;;;;;;1970158;72;21124;-77
2021/09/14 08:03:33;;;;;;;5.20;4.10;;;19.80;99.90;;;;;;1976189;72;21059;-75
2021/09/14 08:05:59;;;;;;;5.35;4.33;;;20.10;99.90;;;;;;1982330;72;21490;-74
2021/09/14 08:08:25;;;;;;;6.58;5.40;;;20.30;99.90;;;;;;1974231;72;21533;-74
2021/09/14 08:10:51;;;;;;;6.67;5.00;;;20.60;99.90;;;;;;1974385;72;21107;-74
2021/09/14 08:13:17;;;;;;;4.65;3.40;;;20.80;99.90;;;;;;1966915;72;21050;-75
2021/09/14 08:15:43;;;;;;;3.80;3.17;;;21.10;99.90;;;;;;1991555;72;21136;-75
2021/09/14 08:18:09;;;;;;;3.80;3.45;;;21.40;99.90;;;;;;1971982;72;21028;-74
2021/09/14 08:20:35;;;;;;;7.08;3.20;;;21.90;99.90;;;;;;1975342;72;21058;-75
2021/09/14 08:23:02;;;;;;;6.75;3.27;;;21.90;99.90;;;;;;1980145;72;21121;-75
2021/09/14 08:25:28;;;;;;;4.42;3.22;;;22.10;99.90;;;;;;1974979;73;21068;-76
2021/09/14 08:27:57;;;;;;;5.65;2.92;;;22.30;99.90;;;;;;1973650;72;21498;-75
2021/09/14 08:30:23;;;;;;;5.30;2.87;;;22.70;99.90;;;;;;1984134;72;21088;-75
2021/09/14 08:32:50;;;;;;;15.90;2.77;;;22.50;99.90;;;;;;1968026;72;21063;-74
2021/09/14 08:35:17;;;;;;;5.35;2.67;;;22.30;99.90;;;;;;1971169;72;21063;-75
2021/09/14 08:37:43;;;;;;;4.53;2.98;;;22.60;99.90;;;;;;1973361;72;21055;-79
2021/09/14 08:40:09;;;;;;;4.03;2.77;;;23.00;99.90;;;;;;1973815;72;21020;-76
2021/09/14 08:42:35;;;;;;;5.00;3.10;;;23.50;99.90;;;;;;1973825;72;21084;-77
2021/09/14 08:45:01;;;;;;;5.45;2.55;;;24.20;99.90;;;;;;1972086;72;21050;-74
2021/09/14 08:47:28;;;;;;;8.30;2.45;;;24.00;99.90;;;;;;1974601;73;21149;-74
2021/09/14 08:49:54;;;;;;;10.90;3.20;;;24.20;99.90;;;;;;1977053;72;21061;-73
2021/09/14 08:52:20;;;;;;;5.60;2.47;;;23.90;99.90;;;;;;1977356;72;21133;-73
2021/09/14 08:54:50;;;;;;;5.75;2.80;;;23.90;99.90;;;;;;1981192;72;21152;-74
2021/09/14 08:57:18;;;;;;;3.67;2.40;;;24.40;99.90;;;;;;1976953;72;21448;-74
2021/09/14 08:59:49;;;;;;;8.43;2.37;;;24.20;99.90;;;;;;1974556;72;21036;-74
2021/09/14 09:02:21;;;;;;;;;;;24.60;99.90;;;;;;1976155;72;21476;-74
2021/09/14 09:07:22;;;;;;;7.90;3.20;;;24.30;99.90;;;;;;1917555;71;21125;-76
2021/09/14 09:09:48;;;;;;;8.43;2.77;;;24.40;99.90;;;;;;1918206;75;21095;-76
2021/09/14 09:12:15;;;;;;;9.50;2.72;;;24.30;99.90;;;;;;1918210;75;21092;-75
2021/09/14 09:14:41;;;;;;;3.87;3.08;;;25.10;99.90;;;;;;1918102;74;21078;-75
2021/09/14 09:17:07;;;;;;;6.28;4.10;;;25.30;99.90;;;;;;1917912;75;21067;-75
2021/09/14 09:19:33;;;;;;;4.33;2.77;;;25.50;99.90;;;;;;1918101;75;21461;-75
2021/09/14 09:21:59;;;;;;;4.33;2.47;;;25.20;99.90;;;;;;1917922;75;21501;-75
2021/09/14 09:24:25;;;;;;;5.05;2.85;;;25.30;99.90;;;;;;1918135;75;21403;-76
2021/09/14 09:26:51;;;;;;;7.97;2.67;;;25.70;99.90;;;;;;1917935;75;21521;-76
2021/09/14 09:29:17;;;;;;;12.05;2.92;;;24.90;99.90;;;;;;1917907;75;21465;-76
2021/09/14 09:31:44;;;;;;;4.22;2.35;;;24.90;99.90;;;;;;1918097;73;21531;-76
2021/09/14 09:34:10;;;;;;;5.60;2.60;;;25.40;99.90;;;;;;1917973;75;21488;-76
2021/09/14 09:36:37;;;;;;;6.17;2.77;;;25.40;99.90;;;;;;1917973;75;21581;-76
2021/09/14 09:39:03;;;;;;;4.15;2.72;;;26.30;99.90;;;;;;1918039;75;21070;-75
2021/09/14 09:41:33;;;;;;;2.62;2.42;;;26.00;99.90;;;;;;1918038;75;21136;-75
2021/09/14 09:43:57;;;;;;;5.08;2.50;;;25.80;99.90;;;;;;1918728;73;21130;-75
2021/09/14 09:46:23;;;;;;;6.53;2.40;;;25.90;99.90;;;;;;1918157;75;21050;-76
2021/09/14 09:48:49;;;;;;;6.37;2.70;;;26.20;99.90;;;;;;1918038;75;21058;-78
2021/09/14 09:51:16;;;;;;;11.63;3.12;;;26.40;99.90;;;;;;1917943;75;21136;-77
2021/09/14 09:53:42;;;;;;;8.48;2.60;;;26.80;99.90;;;;;;1918048;74;21105;-80
2021/09/14 09:56:08;;;;;;;5.03;2.65;;;26.60;99.90;;;;;;1917898;75;21152;-77
2021/09/14 09:58:34;;;;;;;4.15;2.30;;;26.70;99.90;;;;;;1917915;75;21133;-77
2021/09/14 10:01:00;;;;;;;5.78;2.72;;;26.90;99.90;;;;;;1918131;75;21191;-75
2021/09/14 10:03:27;;;;;;;3.65;2.62;;;27.50;99.90;;;;;;1918056;74;21070;-74
2021/09/14 10:05:54;;;;;;;3.60;2.33;;;27.80;99.90;;;;;;1917854;75;21035;-77
2021/09/14 10:08:21;;;;;;;5.00;2.27;;;28.00;99.90;;;;;;1918088;75;21451;-77
2021/09/14 10:10:47;;;;;;;6.25;2.62;;;27.90;99.90;;;;;;1917798;75;21129;-77
2021/09/14 10:13:13;;;;;;;4.75;2.10;;;28.00;99.90;;;;;;1917933;75;21136;-76
2021/09/14 10:15:39;;;;;;;2.62;2.40;;;28.10;99.90;;;;;;1917908;75;21067;-77
2021/09/14 10:18:05;;;;;;;5.80;2.12;;;28.00;99.90;;;;;;1917851;74;21067;-76
2021/09/14 10:20:31;;;;;;;3.58;2.10;;;27.40;99.90;;;;;;1918018;75;21086;-78
2021/09/14 10:22:58;;;;;;;2.75;2.20;;;28.10;99.90;;;;;;1918016;75;21054;-76
2021/09/14 10:25:24;;;;;;;3.58;2.40;;;28.80;99.90;;;;;;1918039;75;21072;-78
2021/09/14 10:27:50;;;;;;;2.75;2.05;;;28.60;99.90;;;;;;1918135;75;21091;-76
2021/09/14 10:30:16;;;;;;;2.33;2.00;;;28.90;99.90;;;;;;1917843;75;21062;-76
2021/09/14 10:32:42;;;;;;;3.33;2.17;;;29.50;99.90;;;;;;1918052;75;21179;-76
2021/09/14 10:35:09;;;;;;;6.53;2.75;;;29.50;99.90;;;;;;1918074;75;21435;-79
2021/09/14 10:37:36;;;;;;;2.42;2.22;;;29.50;99.90;;;;;;1918032;75;21462;-78
2021/09/14 10:40:02;;;;;;;2.33;2.12;;;29.80;99.90;;;;;;1917914;74;21109;-78
2021/09/14 10:42:28;;;;;;;14.95;2.47;;;29.40;99.90;;;;;;1918080;75;21070;-80
2021/09/14 10:44:55;;;;;;;3.77;2.22;;;29.20;99.90;;;;;;1917888;75;21032;-79
2021/09/14 10:47:21;;;;;;;2.58;1.90;;;28.80;99.90;;;;;;1918075;75;21062;-81
2021/09/14 10:49:47;;;;;;;2.10;2.00;;;29.00;99.90;;;;;;1917827;74;21055;-79
2021/09/14 10:52:14;;;;;;;3.30;2.20;;;28.40;99.90;;;;;;1917989;75;21067;-79
2021/09/14 10:54:42;;;;;;;3.75;2.15;;;28.20;99.90;;;;;;1917963;75;21039;-79
2021/09/14 10:57:08;;;;;;;3.30;2.20;;;28.50;99.90;;;;;;1918010;75;21478;-78
2021/09/14 10:59:34;;;;;;;8.25;2.52;;;28.90;99.90;;;;;;1917943;75;21550;-79
2021/09/14 11:02:00;;;;;;;2.15;1.80;;;29.30;99.90;;;;;;1917935;75;21479;-78
2021/09/14 11:04:27;;;;;;;3.25;1.90;;;29.50;99.90;;;;;;1917926;75;21493;-78
2021/09/14 11:06:53;;;;;;;8.45;2.22;;;29.50;99.90;;;;;;1918048;74;21102;-78
2021/09/14 11:09:19;;;;;;;3.22;1.92;;;29.90;99.90;;;;;;1917963;75;21059;-78
2021/09/14 11:11:45;;;;;;;2.95;2.10;;;30.00;99.90;;;;;;1918007;75;21039;-78
2021/09/14 11:14:11;;;;;;;7.87;2.33;;;30.70;99.90;;;;;;1918025;75;21128;-77
2021/09/14 11:16:37;;;;;;;2.85;1.75;;;30.80;99.90;;;;;;1917971;73;21070;-78
2021/09/14 11:19:03;;;;;;;3.85;2.02;;;30.50;99.90;;;;;;1918043;75;21156;-77
2021/09/14 11:21:29;;;;;;;2.52;2.00;;;30.60;99.90;;;;;;1918024;75;21027;-78
2021/09/14 11:23:56;;;;;;;2.92;1.92;;;30.20;99.90;;;;;;1918044;75;21156;-80
2021/09/14 11:26:22;;;;;;;3.30;2.22;;;30.10;99.90;;;;;;1918131;75;21054;-80
2021/09/14 11:28:48;;;;;;;3.22;1.87;;;30.40;99.90;;;;;;1918854;75;21046;-80
2021/09/14 11:31:15;;;;;;;4.42;2.30;;;30.50;99.90;;;;;;1918697;75;21062;-79
2021/09/14 11:33:41;;;;;;;4.30;2.00;;;30.80;99.90;;;;;;1918696;75;21030;-79
2021/09/14 11:36:08;;;;;;;3.80;2.25;;;30.30;99.90;;;;;;1918661;75;21066;-78
2021/09/14 11:38:34;;;;;;;10.53;2.70;;;30.90;99.90;;;;;;1918566;74;21082;-79
2021/09/14 11:41:00;;;;;;;3.08;2.10;;;31.60;99.90;;;;;;1918580;73;21529;-77
2021/09/14 11:43:26;;;;;;;6.03;2.12;;;32.00;99.90;;;;;;1918553;75;21018;-79
2021/09/14 11:45:53;;;;;;;1.90;1.80;;;32.20;99.90;;;;;;1918463;75;21179;-77
2021/09/14 11:48:19;;;;;;;3.02;1.70;;;32.10;99.90;;;;;;1918297;75;21055;-75
2021/09/14 11:50:45;;;;;;;4.20;1.90;;;31.50;99.90;;;;;;1918221;75;21083;-75
2021/09/14 11:53:11;;;;;;;1.82;1.55;;;31.50;99.90;;;;;;1918208;75;21075;-76
2021/09/14 11:55:37;;;;;;;3.42;1.82;;;31.50;99.90;;;;;;1918144;75;21062;-74
2021/09/14 11:58:03;;;;;;;8.35;1.80;;;31.50;99.90;;;;;;1918199;75;21147;-73
2021/09/14 12:00:29;;;;;;;2.02;1.80;;;31.40;99.90;;;;;;1918189;75;21079;-75
2021/09/14 12:02:55;;;;;;;3.58;2.10;;;30.80;99.90;;;;;;1918195;73;21062;-73
2021/09/14 12:05:22;;;;;;;3.25;2.12;;;30.20;99.90;;;;;;1918180;75;21087;-73
2021/09/14 12:07:48;;;;;;;3.85;2.40;;;29.60;99.90;;;;;;1917820;73;21058;-73
2021/09/14 12:10:14;;;;;;;2.25;1.98;;;29.30;99.90;;;;;;1917951;75;21133;-73
2021/09/14 12:12:41;;;;;;;5.97;2.83;;;29.20;99.90;;;;;;1917940;75;21141;-73
2021/09/14 12:15:07;;;;;;;4.12;2.33;;;29.10;99.90;;;;;;1918103;75;21128;-73
2021/09/14 12:17:34;;;;;;;1.72;1.62;;;29.40;99.90;;;;;;1918006;75;21085;-73
2021/09/14 12:20:00;;;;;;;4.25;1.90;;;29.90;99.90;;;;;;1918069;73;21078;-73
2021/09/14 12:22:26;;;;;;;2.40;2.20;;;30.10;99.90;;;;;;1918069;75;21144;-73
2021/09/14 12:24:52;;;;;;;3.52;2.20;;;29.70;99.90;;;;;;1917994;75;21340;-72
2021/09/14 12:27:19;;;;;;;2.47;1.65;;;29.80;99.90;;;;;;1918099;75;21066;-73
2021/09/14 12:29:45;;;;;;;4.50;1.90;;;29.60;99.90;;;;;;1918135;75;21457;-73
2021/09/14 12:32:11;;;;;;;4.78;2.17;;;29.30;99.90;;;;;;1918036;74;21477;-73
2021/09/14 12:34:37;;;;;;;2.75;2.25;;;29.30;99.90;;;;;;1917972;75;21485;-73
2021/09/14 12:37:04;;;;;;;5.85;2.30;;;29.40;99.90;;;;;;1918028;75;21070;-73
2021/09/14 12:39:31;;;;;;;3.50;1.95;;;29.50;99.90;;;;;;1918129;75;21062;-73
2021/09/14 12:41:57;;;;;;;2.72;2.52;;;29.40;99.90;;;;;;1917988;75;21148;-73
2021/09/14 12:44:23;;;;;;;10.68;2.15;;;29.60;99.90;;;;;;1918008;75;21133;-73
2021/09/14 12:46:52;;;;;;;2.87;2.05;;;29.50;99.90;;;;;;1918072;75;21063;-73
2021/09/14 12:49:17;;;;;;;2.87;2.02;;;30.00;99.90;;;;;;1918293;73;21109;-73
2021/09/14 12:51:43;;;;;;;5.45;2.12;;;30.00;99.90;;;;;;1918117;75;21105;-73
2021/09/14 12:54:09;;;;;;;2.52;1.90;;;29.90;99.90;;;;;;1918146;75;21035;-73
2021/09/14 12:56:35;;;;;;;2.30;1.90;;;30.00;99.90;;;;;;1918066;75;21054;-73
2021/09/14 12:59:01;;;;;;;4.95;1.90;;;29.50;99.90;;;;;;1917990;73;21058;-74
2021/09/14 13:01:27;;;;;;;6.45;2.37;;;29.40;99.90;;;;;;1917956;75;21058;-74
2021/09/14 13:03:53;;;;;;;2.80;2.17;;;29.60;99.90;;;;;;1917941;75;21101;-74
2021/09/14 13:06:20;;;;;;;3.92;2.42;;;30.40;99.90;;;;;;1917966;75;21062;-74
2021/09/14 13:08:46;;;;;;;6.22;2.62;;;31.10;99.90;;;;;;1918013;75;21063;-73
2021/09/14 13:11:12;;;;;;;2.62;2.42;;;31.40;99.90;;;;;;1917922;75;21058;-74
2021/09/14 13:16:22;;;;;;;5.67;2.70;;;30.70;99.90;;;;;;1917913;75;21072;-74
2021/09/14 13:18:48;;;;;;;7.50;2.52;;;30.80;99.90;;;;;;1917934;73;21058;-74
2021/09/14 13:21:14;;;;;;;6.05;2.27;;;31.10;99.90;;;;;;1917922;74;21133;-74
2021/09/14 13:23:41;;;;;;;3.55;2.20;;;31.80;99.90;;;;;;1917944;74;21051;-74
2021/09/14 13:26:07;;;;;;;3.67;2.60;;;31.40;99.90;;;;;;1918016;75;21062;-74
2021/09/14 13:28:33;;;;;;;3.98;2.40;;;31.70;99.90;;;;;;1918006;73;21535;-74
2021/09/14 13:30:59;;;;;;;3.87;2.60;;;31.20;99.90;;;;;;1917868;73;21457;-75
2021/09/14 13:33:25;;;;;;;4.25;2.67;;;32.20;99.90;;;;;;1917924;75;21486;-74
2021/09/14 13:35:51;;;;;;;4.33;2.20;;;32.40;99.90;;;;;;1918005;75;21551;-74
2021/09/14 13:38:17;;;;;;;3.27;2.33;;;32.80;99.90;;;;;;1917833;75;21544;-74
2021/09/14 13:40:47;;;;;;;5.15;2.37;;;32.70;99.90;;;;;;1917940;73;21573;-73
2021/09/14 13:43:11;;;;;;;4.55;2.87;;;33.00;99.90;;;;;;1918413;73;21035;-74